Time;durP1;ratioP1;P1;durP2;ratioP2;P2;SDS_P1;SDS_P2;PMS_P1;PMS_P2;Temp;Humidity;BMP_temperature;BMP_pressure;BME280_temperature;BME280_humidity;BME280_pressure;Samples;Min_cycle;Max_cycle;Signal;HPM_P1;HPM_P2
2023/12/12 00:01:43;;;;;;;0.75;0.13;;;17.30;52.10;;;;;;5090905;28;20051;-69
2023/12/12 00:04:09;;;;;;;0.85;0.10;;;17.30;52.00;;;;;;5090602;28;20044;-69
2023/12/12 00:06:35;;;;;;;0.85;0.10;;;17.30;52.00;;;;;;5091814;28;20059;-69
2023/12/12 00:09:00;;;;;;;0.63;0.10;;;17.20;52.00;;;;;;5092100;28;20126;-69
2023/12/12 00:11:26;;;;;;;0.55;0.10;;;17.30;52.10;;;;;;5090979;28;20106;-69
2023/12/12 00:13:51;;;;;;;0.63;0.10;;;17.30;52.10;;;;;;5091832;28;20503;-69
2023/12/12 00:16:17;;;;;;;0.25;0.00;;;17.20;52.00;;;;;;5091862;28;20147;-69
2023/12/12 00:18:43;;;;;;;0.88;0.20;;;17.20;52.00;;;;;;5091893;28;20121;-69
2023/12/12 00:21:09;;;;;;;0.30;0.10;;;17.20;52.00;;;;;;5090610;28;20399;-70
2023/12/12 00:23:34;;;;;;;0.68;0.10;;;17.20;52.10;;;;;;5090532;28;20090;-70
2023/12/12 00:26:00;;;;;;;0.82;0.10;;;17.20;52.00;;;;;;5090612;28;20050;-69
2023/12/12 00:28:25;;;;;;;0.50;0.10;;;17.20;52.00;;;;;;5091946;28;20036;-69
2023/12/12 00:30:51;;;;;;;0.57;0.10;;;17.20;52.10;;;;;;5090468;28;20062;-69
2023/12/12 00:33:17;;;;;;;0.98;0.35;;;17.10;52.00;;;;;;5090536;28;20047;-69
2023/12/12 00:35:43;;;;;;;0.65;0.10;;;17.10;52.00;;;;;;5090337;28;20052;-69
2023/12/12 00:38:08;;;;;;;1.23;0.20;;;17.10;52.10;;;;;;5090761;28;20036;-70
2023/12/12 00:40:34;;;;;;;0.38;0.10;;;17.10;52.10;;;;;;5090306;28;20480;-69
2023/12/12 00:43:00;;;;;;;0.80;0.10;;;17.10;52.20;;;;;;5090700;28;20044;-69
2023/12/12 00:45:25;;;;;;;0.43;0.10;;;17.10;52.20;;;;;;5090762;28;20040;-70
2023/12/12 00:47:51;;;;;;;0.30;0.25;;;17.10;52.20;;;;;;5090780;28;20097;-69
2023/12/12 00:50:16;;;;;;;0.90;0.10;;;17.00;52.10;;;;;;5091529;28;20060;-70
2023/12/12 00:52:42;;;;;;;0.75;0.20;;;17.00;52.10;;;;;;5091575;28;20032;-69
2023/12/12 00:55:08;;;;;;;0.52;0.20;;;17.00;52.10;;;;;;5091432;28;20459;-69
2023/12/12 00:57:35;;;;;;;0.65;0.32;;;17.10;52.20;;;;;;5090680;28;20040;-70
2023/12/12 01:00:01;;;;;;;0.52;0.32;;;17.40;51.80;;;;;;5090459;28;20043;-69
2023/12/12 01:02:26;;;;;;;0.38;0.20;;;17.70;51.00;;;;;;5090268;28;20126;-68
2023/12/12 01:04:53;;;;;;;0.50;0.10;;;18.20;50.20;;;;;;5090160;28;20059;-70
2023/12/12 01:07:19;;;;;;;1.10;0.10;;;18.60;49.20;;;;;;5090256;28;20040;-70
2023/12/12 01:09:45;;;;;;;0.90;0.20;;;19.00;48.20;;;;;;5090183;28;20055;-70
2023/12/12 01:12:10;;;;;;;0.20;0.10;;;19.50;47.10;;;;;;5091528;28;20052;-70
2023/12/12 01:14:36;;;;;;;0.20;0.00;;;20.10;45.90;;;;;;5093588;28;20048;-70
2023/12/12 01:17:03;;;;;;;0.40;0.20;;;20.70;44.70;;;;;;5093619;28;20066;-70
2023/12/12 01:19:30;;;;;;;0.55;0.10;;;21.30;43.50;;;;;;5094012;28;20051;-70
2023/12/12 01:21:55;;;;;;;1.20;0.10;;;21.90;42.40;;;;;;5093541;28;20479;-70
2023/12/12 01:24:21;;;;;;;0.30;0.10;;;22.40;41.40;;;;;;5093899;28;20085;-70
2023/12/12 01:26:47;;;;;;;0.40;0.05;;;22.80;40.60;;;;;;5095013;28;20119;-70
2023/12/12 01:29:16;;;;;;;0.10;0.00;;;23.20;39.90;;;;;;5093561;28;20046;-70
2023/12/12 01:31:43;;;;;;;0.17;0.00;;;23.50;39.40;;;;;;5094746;28;20119;-69
2023/12/12 01:34:09;;;;;;;0.20;0.05;;;23.70;38.80;;;;;;5094721;28;20040;-70
2023/12/12 01:36:35;;;;;;;0.60;0.10;;;24.00;38.50;;;;;;5093351;28;20062;-70
2023/12/12 01:39:00;;;;;;;0.20;0.05;;;24.20;38.20;;;;;;5093410;28;20040;-70
2023/12/12 01:41:26;;;;;;;0.28;0.00;;;24.30;37.90;;;;;;5093235;28;20075;-70
2023/12/12 01:43:52;;;;;;;0.20;0.03;;;24.50;37.70;;;;;;5093271;28;20044;-70
2023/12/12 01:46:19;;;;;;;1.15;0.10;;;24.50;37.50;;;;;;5094489;28;20028;-70
2023/12/12 01:48:45;;;;;;;0.60;0.00;;;24.60;37.40;;;;;;5094555;28;20036;-70
2023/12/12 01:51:12;;;;;;;0.38;0.10;;;24.70;37.20;;;;;;5094349;28;20048;-70
2023/12/12 01:53:41;;;;;;;0.30;0.10;;;24.80;37.10;;;;;;5094608;28;20482;-70
2023/12/12 01:56:07;;;;;;;0.30;0.10;;;24.80;37.00;;;;;;5094437;28;20105;-70
2023/12/12 01:58:35;;;;;;;0.20;0.05;;;24.90;37.00;;;;;;5093231;28;20387;-70
2023/12/12 02:01:02;;;;;;;0.38;0.10;;;24.90;36.90;;;;;;5093198;28;20145;-70
2023/12/12 02:03:29;;;;;;;0.90;0.00;;;24.90;36.90;;;;;;5093141;28;20120;-70
2023/12/12 02:05:59;;;;;;;0.40;0.10;;;24.90;36.90;;;;;;5092639;28;20059;-70
2023/12/12 02:08:25;;;;;;;0.20;0.10;;;24.80;37.00;;;;;;5094264;28;20399;-70
2023/12/12 02:10:51;;;;;;;0.43;0.00;;;24.70;37.10;;;;;;5092726;28;20040;-70
2023/12/12 02:13:17;;;;;;;0.25;0.00;;;24.60;37.20;;;;;;5092909;28;20054;-70
2023/12/12 02:15:44;;;;;;;0.40;0.10;;;24.60;37.40;;;;;;5092819;28;20047;-70
2023/12/12 02:18:09;;;;;;;0.10;0.00;;;24.60;37.40;;;;;;5092780;28;20036;-71
2023/12/12 02:20:35;;;;;;;0.10;0.03;;;24.60;37.40;;;;;;5092837;28;20032;-70
2023/12/12 02:23:01;;;;;;;0.25;0.10;;;24.60;37.30;;;;;;5092439;28;20533;-70
2023/12/12 02:25:26;;;;;;;0.52;0.10;;;24.60;37.20;;;;;;5093979;28;20040;-70
2023/12/12 02:27:52;;;;;;;0.63;0.10;;;24.60;37.10;;;;;;5093596;28;20036;-70
2023/12/12 02:30:20;;;;;;;0.32;0.10;;;24.70;37.20;;;;;;5092638;28;20047;-70
2023/12/12 02:32:45;;;;;;;0.77;0.00;;;24.70;37.20;;;;;;5092272;28;20428;-70
2023/12/12 02:35:11;;;;;;;0.80;0.10;;;24.70;37.20;;;;;;5092170;28;20123;-70
2023/12/12 02:37:37;;;;;;;0.25;0.00;;;24.70;37.10;;;;;;5092491;28;20115;-70
2023/12/12 02:40:03;;;;;;;0.20;0.10;;;24.70;37.10;;;;;;5092031;28;20044;-70
2023/12/12 02:42:29;;;;;;;0.30;0.10;;;24.60;37.10;;;;;;5092129;28;20040;-70
2023/12/12 02:44:56;;;;;;;0.10;0.00;;;24.60;37.20;;;;;;5092048;28;20047;-70
2023/12/12 02:47:22;;;;;;;0.30;0.10;;;24.60;37.10;;;;;;5092279;28;20085;-70
2023/12/12 02:49:48;;;;;;;0.20;0.08;;;24.60;37.10;;;;;;5092202;28;20040;-70
2023/12/12 02:52:14;;;;;;;0.50;0.10;;;24.60;37.20;;;;;;5093116;28;20475;-70
2023/12/12 02:54:40;;;;;;;0.30;0.03;;;24.60;37.20;;;;;;5092107;28;20050;-70
2023/12/12 02:57:08;;;;;;;0.30;0.00;;;24.50;37.20;;;;;;5091791;28;20048;-70
2023/12/12 02:59:34;;;;;;;0.57;0.10;;;24.50;37.80;;;;;;5092141;28;20393;-71
2023/12/12 03:02:00;;;;;;;0.47;0.15;;;24.40;37.40;;;;;;5091731;28;20044;-70
2023/12/12 03:04:25;;;;;;;0.40;0.10;;;24.40;37.50;;;;;;5091928;28;20044;-70
2023/12/12 03:06:51;;;;;;;0.45;0.10;;;24.40;37.50;;;;;;5091347;28;20457;-70
2023/12/12 03:09:16;;;;;;;0.15;0.00;;;24.40;37.50;;;;;;5091599;28;20376;-70
2023/12/12 03:11:42;;;;;;;0.60;0.10;;;24.30;37.50;;;;;;5091575;28;20105;-70
2023/12/12 03:14:09;;;;;;;1.10;0.10;;;24.30;37.50;;;;;;5091741;28;20044;-70
2023/12/12 03:16:34;;;;;;;0.40;0.10;;;24.30;37.50;;;;;;5092652;28;20480;-71
2023/12/12 03:19:00;;;;;;;0.20;0.00;;;24.30;37.50;;;;;;5091457;28;20040;-70
2023/12/12 03:21:25;;;;;;;0.20;0.10;;;24.30;37.50;;;;;;5092632;28;20068;-70
2023/12/12 03:23:51;;;;;;;0.30;0.10;;;24.30;37.50;;;;;;5091578;28;20048;-70
2023/12/12 03:26:16;;;;;;;0.82;0.10;;;24.30;37.50;;;;;;5092527;28;20423;-70
2023/12/12 03:28:42;;;;;;;0.50;0.10;;;24.30;37.50;;;;;;5092655;28;20071;-69
2023/12/12 03:31:08;;;;;;;0.47;0.10;;;24.20;37.50;;;;;;5092576;28;20118;-70
2023/12/12 03:33:34;;;;;;;0.55;0.10;;;24.30;37.60;;;;;;5091497;28;20479;-70
2023/12/12 03:35:59;;;;;;;0.30;0.10;;;24.20;37.60;;;;;;5090859;28;20044;-69
2023/12/12 03:38:25;;;;;;;0.47;0.10;;;24.20;37.60;;;;;;5091127;28;20511;-70
2023/12/12 03:40:51;;;;;;;0.20;0.00;;;24.20;37.60;;;;;;5092247;28;20383;-70
2023/12/12 03:43:16;;;;;;;0.65;0.10;;;24.10;37.60;;;;;;5092597;28;20032;-70
2023/12/12 03:45:42;;;;;;;0.20;0.08;;;24.10;37.70;;;;;;5092403;28;20048;-70
2023/12/12 03:48:08;;;;;;;0.88;0.10;;;24.10;37.80;;;;;;5074173;28;20536;-70
2023/12/12 03:50:34;;;;;;;0.40;0.10;;;24.10;37.70;;;;;;5091202;28;20048;-70
2023/12/12 03:53:00;;;;;;;0.70;0.10;;;24.10;37.70;;;;;;5092132;28;20398;-70
2023/12/12 03:55:28;;;;;;;0.93;0.25;;;24.10;37.70;;;;;;5092014;28;20126;-70
2023/12/12 03:57:54;;;;;;;0.88;0.10;;;24.20;37.70;;;;;;5091078;28;20439;-70
2023/12/12 04:00:20;;;;;;;0.43;0.10;;;24.20;37.70;;;;;;5090949;28;20128;-70
2023/12/12 04:02:45;;;;;;;0.40;0.00;;;24.20;37.70;;;;;;5090957;28;20067;-69
2023/12/12 04:05:11;;;;;;;0.20;0.10;;;24.20;37.70;;;;;;5090576;28;20044;-69
2023/12/12 04:07:38;;;;;;;0.20;0.00;;;24.20;37.70;;;;;;5091968;28;20055;-70
2023/12/12 04:10:06;;;;;;;0.43;0.05;;;24.20;38.50;;;;;;5090907;28;20046;-70
2023/12/12 04:12:33;;;;;;;0.30;0.00;;;24.20;37.70;;;;;;5091971;28;20032;-69
2023/12/12 04:14:59;;;;;;;0.63;0.10;;;24.10;37.70;;;;;;5090936;28;20112;-70
2023/12/12 04:17:25;;;;;;;0.40;0.10;;;24.10;37.80;;;;;;5090671;28;20445;-70
2023/12/12 04:19:50;;;;;;;0.50;0.10;;;24.10;37.80;;;;;;5090794;28;20412;-70
2023/12/12 04:22:16;;;;;;;0.20;0.08;;;24.10;37.90;;;;;;5090929;28;20040;-69
2023/12/12 04:24:41;;;;;;;0.28;0.10;;;24.10;37.90;;;;;;5090554;28;20051;-70
2023/12/12 04:27:07;;;;;;;0.20;0.05;;;24.00;37.90;;;;;;5090508;28;20040;-69
2023/12/12 04:29:33;;;;;;;0.35;0.00;;;24.00;38.10;;;;;;5091864;28;20040;-69
2023/12/12 04:31:59;;;;;;;0.35;0.10;;;23.90;38.10;;;;;;5090794;28;20032;-70
2023/12/12 04:34:25;;;;;;;0.68;0.20;;;23.90;38.20;;;;;;5090561;28;20119;-70
2023/12/12 04:36:50;;;;;;;0.22;0.10;;;23.80;38.20;;;;;;5090415;28;20093;-69
2023/12/12 04:39:17;;;;;;;0.20;0.10;;;23.80;38.30;;;;;;5090651;28;20109;-69
2023/12/12 04:41:44;;;;;;;1.10;0.10;;;23.80;38.40;;;;;;5090474;28;20464;-69
2023/12/12 04:44:10;;;;;;;0.43;0.10;;;23.70;38.50;;;;;;5091880;28;20119;-69
2023/12/12 04:46:36;;;;;;;0.30;0.10;;;23.70;38.50;;;;;;5090415;28;20040;-70
2023/12/12 04:49:02;;;;;;;0.20;0.00;;;23.60;38.50;;;;;;5092734;28;20044;-69
2023/12/12 04:51:29;;;;;;;0.85;0.10;;;23.70;38.60;;;;;;5095599;28;20376;-70
2023/12/12 04:53:55;;;;;;;0.40;0.10;;;23.70;38.70;;;;;;5094362;28;20044;-70
2023/12/12 04:56:20;;;;;;;0.30;0.10;;;23.60;38.60;;;;;;5095450;28;20040;-70
2023/12/12 04:58:46;;;;;;;0.38;0.10;;;23.60;38.70;;;;;;5095540;28;20516;-69
2023/12/12 05:01:15;;;;;;;0.60;0.10;;;23.60;38.70;;;;;;5094381;28;20044;-69
2023/12/12 05:03:41;;;;;;;1.45;0.35;;;23.60;38.70;;;;;;5095405;28;20399;-67
2023/12/12 05:06:08;;;;;;;0.45;0.10;;;23.70;39.50;;;;;;5095201;28;20052;-69
2023/12/12 05:08:34;;;;;;;0.40;0.10;;;23.60;38.60;;;;;;5095175;28;20044;-70
2023/12/12 05:11:00;;;;;;;0.25;0.10;;;23.70;38.60;;;;;;5094122;28;20332;-69
2023/12/12 05:13:26;;;;;;;0.50;0.10;;;23.70;38.60;;;;;;5093833;28;20032;-70
2023/12/12 05:15:52;;;;;;;0.88;0.10;;;23.70;38.50;;;;;;5094010;28;20075;-70
2023/12/12 05:18:17;;;;;;;0.43;0.10;;;23.80;38.50;;;;;;5093735;28;20441;-70
2023/12/12 05:20:43;;;;;;;0.10;0.00;;;23.80;38.40;;;;;;5093816;28;20042;-68
2023/12/12 05:23:11;;;;;;;0.52;0.10;;;23.90;38.30;;;;;;5093758;28;20040;-69
2023/12/12 05:25:37;;;;;;;0.50;0.10;;;23.90;38.10;;;;;;5093920;28;20442;-71
2023/12/12 05:28:02;;;;;;;0.52;0.10;;;24.00;38.10;;;;;;5093596;28;20051;-70
2023/12/12 05:30:28;;;;;;;0.22;0.00;;;24.10;38.10;;;;;;5093534;28;20049;-70
2023/12/12 05:32:54;;;;;;;0.85;0.10;;;24.10;38.00;;;;;;5093690;28;20059;-69
2023/12/12 05:35:19;;;;;;;0.32;0.10;;;24.10;37.90;;;;;;5093370;28;20048;-69
2023/12/12 05:37:45;;;;;;;0.70;0.10;;;24.10;37.90;;;;;;5094754;28;20115;-69
2023/12/12 05:40:14;;;;;;;0.77;0.43;;;24.10;37.90;;;;;;5094518;28;20027;-70
2023/12/12 05:42:40;;;;;;;0.40;0.10;;;24.10;37.90;;;;;;5094589;28;20044;-69
2023/12/12 05:45:07;;;;;;;0.28;0.10;;;24.10;37.90;;;;;;5093180;28;20036;-69
2023/12/12 05:47:33;;;;;;;0.50;0.10;;;24.00;38.00;;;;;;5093245;28;20074;-68
2023/12/12 05:49:59;;;;;;;0.47;0.10;;;24.00;38.00;;;;;;5093065;28;20063;-70
2023/12/12 05:52:25;;;;;;;0.30;0.10;;;23.90;38.10;;;;;;5094409;28;20036;-70
2023/12/12 05:54:51;;;;;;;0.30;0.10;;;23.90;38.20;;;;;;5093261;28;20052;-70
2023/12/12 05:57:17;;;;;;;0.40;0.10;;;23.90;38.20;;;;;;5094193;28;20521;-68
2023/12/12 05:59:43;;;;;;;0.60;0.10;;;23.80;38.30;;;;;;5092861;28;20089;-70
2023/12/12 06:02:08;;;;;;;0.25;0.10;;;23.80;38.30;;;;;;5092952;28;20515;-71
2023/12/12 06:04:35;;;;;;;0.30;0.10;;;23.80;38.40;;;;;;5093034;28;20040;-70
2023/12/12 06:07:02;;;;;;;0.90;0.20;;;23.70;38.40;;;;;;5093930;28;20087;-70
2023/12/12 06:09:28;;;;;;;0.30;0.10;;;23.70;38.50;;;;;;5094172;28;20035;-70
2023/12/12 06:11:53;;;;;;;0.30;0.10;;;23.70;38.50;;;;;;5092640;28;20102;-70
2023/12/12 06:14:19;;;;;;;1.20;0.10;;;23.70;38.50;;;;;;5092974;28;20131;-70
2023/12/12 06:16:45;;;;;;;0.50;0.10;;;23.70;38.60;;;;;;5093917;28;20290;-70
2023/12/12 06:19:10;;;;;;;0.73;0.20;;;23.60;38.60;;;;;;5093966;28;20044;-68
2023/12/12 06:21:36;;;;;;;0.20;0.03;;;23.70;38.70;;;;;;5093826;28;20040;-70
2023/12/12 06:24:02;;;;;;;0.63;0.10;;;23.70;38.70;;;;;;5092756;28;20031;-68
2023/12/12 06:26:29;;;;;;;0.60;0.10;;;23.60;38.60;;;;;;5093568;28;20072;-70
2023/12/12 06:28:54;;;;;;;0.55;0.10;;;23.70;38.60;;;;;;5094021;28;20093;-69
2023/12/12 06:31:20;;;;;;;0.50;0.10;;;23.70;38.50;;;;;;5092542;28;20047;-70
2023/12/12 06:33:47;;;;;;;0.43;0.10;;;23.80;38.50;;;;;;5090793;28;20032;-70
2023/12/12 06:36:13;;;;;;;0.20;0.10;;;23.80;38.50;;;;;;5092014;28;20545;-70
2023/12/12 06:38:39;;;;;;;4.75;3.80;;;23.80;38.40;;;;;;5091755;28;20103;-66
2023/12/12 06:41:05;;;;;;;3.75;2.53;;;23.80;38.10;;;;;;5090288;28;20047;-71
2023/12/12 06:43:31;;;;;;;3.58;2.00;;;23.60;38.00;;;;;;5080602;28;20036;-71
2023/12/12 06:45:57;;;;;;;3.08;1.45;;;23.50;38.30;;;;;;5074218;28;20054;-71
2023/12/12 06:48:23;;;;;;;1.50;0.70;;;23.50;38.60;;;;;;5080340;28;20036;-69
2023/12/12 06:50:48;;;;;;;2.03;0.60;;;23.60;38.80;;;;;;5075169;28;20036;-69
2023/12/12 06:53:14;;;;;;;2.05;0.70;;;23.70;39.10;;;;;;5075204;28;20660;-69
2023/12/12 06:55:40;;;;;;;1.27;0.45;;;23.80;39.10;;;;;;5099649;28;20051;-70
2023/12/12 06:58:06;;;;;;;2.22;0.63;;;24.00;39.10;;;;;;5108328;28;20047;-69
2023/12/12 07:00:31;;;;;;;1.17;0.50;;;24.00;39.00;;;;;;5099505;28;20383;-70
2023/12/12 07:02:57;;;;;;;1.13;0.40;;;24.10;38.80;;;;;;5099197;28;20040;-71
2023/12/12 07:05:23;;;;;;;1.00;0.50;;;24.20;38.80;;;;;;5089644;28;20055;-70
2023/12/12 07:07:48;;;;;;;2.22;0.60;;;24.20;38.80;;;;;;5093004;28;20453;-69
2023/12/12 07:10:16;;;;;;;2.25;0.80;;;24.30;38.80;;;;;;5092045;28;20039;-69
2023/12/12 07:12:42;;;;;;;3.78;0.70;;;24.30;38.70;;;;;;5090249;28;20038;-69
2023/12/12 07:15:09;;;;;;;1.25;0.57;;;24.40;38.40;;;;;;5092189;28;20043;-69
2023/12/12 07:17:34;;;;;;;1.52;0.90;;;24.40;38.30;;;;;;5074309;28;20511;-70
2023/12/12 07:20:00;;;;;;;1.45;0.65;;;24.40;38.20;;;;;;5078623;28;20040;-68
2023/12/12 07:22:25;;;;;;;1.08;0.57;;;24.50;38.10;;;;;;5090438;28;20075;-68
2023/12/12 07:24:51;;;;;;;0.90;0.65;;;24.40;38.80;;;;;;5086910;28;20036;-70
2023/12/12 07:27:17;;;;;;;1.95;0.57;;;24.40;38.10;;;;;;5065402;28;20851;-70
2023/12/12 07:29:42;;;;;;;2.65;0.80;;;24.30;38.00;;;;;;5079478;28;20056;-71
2023/12/12 07:32:08;;;;;;;2.08;0.50;;;24.20;37.90;;;;;;5079134;28;20131;-71
2023/12/12 07:34:34;;;;;;;1.48;0.77;;;24.20;38.00;;;;;;5080777;28;20093;-69
2023/12/12 07:36:59;;;;;;;1.15;0.45;;;24.10;38.30;;;;;;5073532;28;20044;-71
2023/12/12 07:39:25;;;;;;;1.67;0.85;;;24.00;38.50;;;;;;5074472;28;20067;-70
2023/12/12 07:41:51;;;;;;;5.63;1.80;;;23.80;38.50;;;;;;5079978;28;20035;-73
2023/12/12 07:44:17;;;;;;;5.00;2.30;;;23.80;38.40;;;;;;5079359;28;20040;-72
2023/12/12 07:46:42;;;;;;;3.92;2.50;;;23.60;38.20;;;;;;5078391;28;20406;-71
2023/12/12 07:49:08;;;;;;;8.15;2.70;;;23.60;38.30;;;;;;5081551;28;20395;-70
2023/12/12 07:51:34;;;;;;;5.57;3.38;;;23.50;38.20;;;;;;5078817;28;20127;-73
2023/12/12 07:54:03;;;;;;;4.63;3.17;;;23.50;38.20;;;;;;5078276;28;20051;-73
2023/12/12 07:56:29;;;;;;;5.13;3.53;;;23.50;37.90;;;;;;5078979;28;20582;-76
2023/12/12 07:58:55;;;;;;;5.72;3.33;;;23.50;37.70;;;;;;5079848;28;20122;-73
2023/12/12 08:01:21;;;;;;;5.80;2.47;;;23.60;37.60;;;;;;5078951;28;20047;-72
2023/12/12 08:03:46;;;;;;;3.50;2.22;;;23.60;37.70;;;;;;5084342;28;20044;-71
2023/12/12 08:06:12;;;;;;;1.52;1.08;;;23.70;37.80;;;;;;5092098;28;20059;-72
2023/12/12 08:08:37;;;;;;;3.42;1.60;;;23.80;37.80;;;;;;5081134;28;20561;-71
2023/12/12 08:11:03;;;;;;;2.75;1.13;;;23.80;37.80;;;;;;5097539;28;20039;-72
2023/12/12 08:13:30;;;;;;;2.13;1.13;;;23.90;37.70;;;;;;5081706;28;20130;-68
2023/12/12 08:15:57;;;;;;;2.45;1.25;;;24.10;37.90;;;;;;5077268;28;20052;-69
2023/12/12 08:18:22;;;;;;;2.08;0.98;;;24.10;37.80;;;;;;5084386;28;20039;-69
2023/12/12 08:20:49;;;;;;;2.17;0.70;;;24.10;37.80;;;;;;5076812;28;20498;-71
2023/12/12 08:23:15;;;;;;;3.22;0.90;;;24.10;37.80;;;;;;5083566;27;20058;-71
2023/12/12 08:25:40;;;;;;;4.07;0.70;;;24.10;37.80;;;;;;5085797;27;20047;-71
2023/12/12 08:28:06;;;;;;;2.25;0.68;;;24.20;37.90;;;;;;5101065;27;20079;-70
2023/12/12 08:30:31;;;;;;;1.60;0.40;;;24.50;37.90;;;;;;5105555;27;20032;-75
2023/12/12 08:32:57;;;;;;;2.60;0.47;;;24.80;37.60;;;;;;5099451;27;20410;-67
2023/12/12 08:35:23;;;;;;;1.77;0.30;;;25.00;37.30;;;;;;5084398;28;20040;-73
2023/12/12 08:37:48;;;;;;;1.50;0.30;;;25.10;37.10;;;;;;5101467;27;20032;-69
2023/12/12 08:40:14;;;;;;;4.53;1.10;;;25.10;37.20;;;;;;5083312;27;20596;-73
2023/12/12 08:42:39;;;;;;;2.15;0.70;;;24.90;38.10;;;;;;5083572;28;20035;-77
2023/12/12 08:45:05;;;;;;;1.80;0.43;;;24.70;37.80;;;;;;5104824;27;20042;-75
2023/12/12 08:47:31;;;;;;;5.43;0.70;;;24.50;38.30;;;;;;5080400;28;20051;-79
2023/12/12 08:49:59;;;;;;;3.08;0.50;;;24.40;38.90;;;;;;5086847;28;20403;-76
2023/12/12 08:52:26;;;;;;;6.82;1.20;;;24.20;39.30;;;;;;5103139;27;20046;-74
2023/12/12 08:54:52;;;;;;;8.57;0.95;;;24.10;39.80;;;;;;5083546;27;20047;-78
2023/12/12 08:57:17;;;;;;;5.65;0.50;;;24.00;40.20;;;;;;5073067;27;20043;-76
2023/12/12 08:59:43;;;;;;;3.83;0.45;;;23.80;40.70;;;;;;5103167;27;20041;-74
2023/12/12 09:02:09;;;;;;;5.80;0.50;;;23.70;41.10;;;;;;5087244;27;20490;-75
2023/12/12 09:04:36;;;;;;;6.65;0.60;;;23.50;41.50;;;;;;5083786;28;20048;-76
2023/12/12 09:07:01;;;;;;;3.40;0.40;;;23.40;42.00;;;;;;5106416;27;20077;-72
2023/12/12 09:09:27;;;;;;;6.47;0.70;;;23.30;42.30;;;;;;5091800;27;20035;-74
2023/12/12 09:11:54;;;;;;;6.13;0.63;;;23.20;42.60;;;;;;5086036;27;20032;-72
2023/12/12 09:14:19;;;;;;;6.68;0.50;;;23.20;42.80;;;;;;5084015;28;20643;-75
2023/12/12 09:16:45;;;;;;;2.10;0.50;;;23.30;42.80;;;;;;5104319;27;20048;-75
2023/12/12 09:19:14;;;;;;;4.75;0.60;;;23.50;42.80;;;;;;5087166;27;20044;-70
2023/12/12 09:21:41;;;;;;;7.35;0.80;;;23.60;42.50;;;;;;5084942;27;20051;-71
2023/12/12 09:24:07;;;;;;;4.88;0.88;;;23.70;41.80;;;;;;5090311;27;20066;-71
2023/12/12 09:26:32;;;;;;;1.38;0.50;;;23.70;41.40;;;;;;5101521;27;20035;-71
2023/12/12 09:28:58;;;;;;;4.57;0.75;;;23.80;41.40;;;;;;5087696;28;20061;-70
2023/12/12 09:31:26;;;;;;;2.33;0.50;;;24.00;41.20;;;;;;5089020;27;20035;-74
2023/12/12 09:33:52;;;;;;;4.20;0.80;;;24.10;41.00;;;;;;5099118;27;20550;-71
2023/12/12 09:36:18;;;;;;;4.45;0.65;;;24.20;40.90;;;;;;5081225;27;20068;-71
2023/12/12 09:38:44;;;;;;;2.95;1.55;;;24.20;40.60;;;;;;5082923;28;20024;-70
2023/12/12 09:41:16;;;;;;;3.58;1.63;;;24.00;39.70;;;;;;5100853;27;20483;-71
2023/12/12 09:43:44;;;;;;;5.32;1.42;;;23.80;39.20;;;;;;5105367;27;20109;-70
2023/12/12 09:46:11;;;;;;;2.35;1.20;;;23.60;39.30;;;;;;5102782;27;20039;-71
2023/12/12 09:48:38;;;;;;;7.55;1.70;;;23.60;39.50;;;;;;5084762;27;20134;-69
2023/12/12 09:51:06;;;;;;;3.88;1.40;;;23.50;39.70;;;;;;5083345;28;20143;-71
2023/12/12 09:53:35;;;;;;;4.82;1.65;;;23.50;39.90;;;;;;5082721;27;20091;-74
2023/12/12 09:56:03;;;;;;;3.30;0.88;;;23.50;39.90;;;;;;5098525;27;20151;-71
2023/12/12 09:58:29;;;;;;;2.78;0.68;;;23.60;39.80;;;;;;5086009;27;20042;-69
2023/12/12 10:00:56;;;;;;;3.33;0.60;;;24.00;39.60;;;;;;5084303;27;20494;-69
2023/12/12 10:03:23;;;;;;;9.20;0.80;;;24.40;39.20;;;;;;5084073;27;20067;-70
2023/12/12 10:05:54;;;;;;;2.17;0.60;;;24.70;38.70;;;;;;5099106;27;20074;-71
2023/12/12 10:08:21;;;;;;;5.78;1.35;;;25.10;38.20;;;;;;5082429;28;20051;-69
2023/12/12 10:10:52;;;;;;;2.13;0.80;;;25.10;37.60;;;;;;5082741;27;20121;-69
2023/12/12 10:13:19;;;;;;;4.93;0.80;;;25.00;37.60;;;;;;5096335;27;20692;-69
2023/12/12 10:15:44;;;;;;;7.57;1.25;;;24.90;38.10;;;;;;5084331;27;20048;-70
2023/12/12 10:18:10;;;;;;;2.08;0.63;;;24.90;38.30;;;;;;5081586;27;21005;-69
2023/12/12 10:20:36;;;;;;;4.07;0.80;;;24.70;38.50;;;;;;5082702;28;20122;-69
2023/12/12 10:23:03;;;;;;;2.20;0.80;;;24.60;38.80;;;;;;5085080;27;20068;-70
2023/12/12 10:25:31;;;;;;;1.98;0.98;;;24.50;39.20;;;;;;5086593;28;20775;-72
2023/12/12 10:27:58;;;;;;;3.85;1.80;;;24.40;39.40;;;;;;5087383;27;20075;-68
2023/12/12 10:30:24;;;;;;;9.52;2.70;;;24.20;39.40;;;;;;5083080;28;20058;-69
2023/12/12 10:32:51;;;;;;;7.78;2.15;;;23.90;39.60;;;;;;5084459;27;20031;-68
2023/12/12 10:35:17;;;;;;;5.50;2.10;;;23.70;40.10;;;;;;5086765;27;20118;-72
2023/12/12 10:37:43;;;;;;;4.57;1.63;;;23.50;40.30;;;;;;5081773;27;20039;-68
2023/12/12 10:42:51;;;;;;;7.38;2.17;;;23.30;40.60;;;;;;5087815;27;20536;-66
2023/12/12 10:45:18;;;;;;;3.65;1.40;;;23.20;40.90;;;;;;5089702;28;20059;-66
2023/12/12 10:47:50;;;;;;;4.57;1.88;;;23.20;41.00;;;;;;5074000;28;20052;-67
2023/12/12 10:50:17;;;;;;;2.92;1.05;;;23.20;40.90;;;;;;5086701;28;20041;-67
2023/12/12 10:52:45;;;;;;;2.63;1.45;;;23.30;40.80;;;;;;5070084;28;20751;-66
2023/12/12 10:55:12;;;;;;;2.22;1.35;;;23.50;40.90;;;;;;5087985;28;20045;-66
2023/12/12 10:57:42;;;;;;;5.50;1.30;;;23.60;40.70;;;;;;5069855;28;20066;-67
2023/12/12 11:00:12;;;;;;;2.47;1.00;;;23.80;40.30;;;;;;5071419;28;20056;-66
2023/12/12 11:02:40;;;;;;;;;;;23.90;39.90;;;;;;5072050;28;20048;-67
2023/12/12 11:05:08;;;;;;;3.47;1.55;;;24.10;39.70;;;;;;5088044;28;19920;-68
2023/12/12 11:07:36;;;;;;;5.13;1.70;;;24.20;39.30;;;;;;5075965;28;20036;-66
2023/12/12 11:10:05;;;;;;;2.25;1.42;;;24.20;39.20;;;;;;5072518;28;20033;-67
2023/12/12 11:12:32;;;;;;;2.30;1.42;;;24.40;39.30;;;;;;5077449;28;20048;-66
2023/12/12 11:14:59;;;;;;;3.83;1.42;;;24.40;39.20;;;;;;5072735;28;20085;-67
2023/12/12 11:17:24;;;;;;;1.88;1.60;;;24.50;39.10;;;;;;5077002;28;20373;-68
2023/12/12 11:19:51;;;;;;;3.40;1.77;;;24.50;38.70;;;;;;5077402;28;20095;-68
2023/12/12 11:22:38;;;;;;;3.63;1.75;;;24.40;38.80;;;;;;5077694;28;20044;-66
2023/12/12 11:25:08;;;;;;;3.92;1.75;;;24.20;39.20;;;;;;5075860;28;20043;-67
2023/12/12 11:27:38;;;;;;;5.13;1.42;;;24.10;39.60;;;;;;5057401;28;20144;-67
2023/12/12 11:30:05;;;;;;;9.17;1.60;;;24.00;39.80;;;;;;5075819;28;20039;-67
2023/12/12 11:32:34;;;;;;;4.13;1.30;;;23.90;40.20;;;;;;5075320;28;20047;-66
2023/12/12 11:35:00;;;;;;;6.45;2.20;;;23.80;40.40;;;;;;5076792;28;20182;-65
2023/12/12 11:37:41;;;;;;;5.03;1.52;;;23.70;40.50;;;;;;5076645;28;20127;-67
2023/12/12 11:40:09;;;;;;;2.65;2.42;;;23.60;40.50;;;;;;5077966;28;20086;-69
2023/12/12 11:42:35;;;;;;;5.40;2.53;;;23.50;40.60;;;;;;5073082;28;20052;-68
2023/12/12 11:45:01;;;;;;;6.03;2.80;;;23.30;40.70;;;;;;5088799;28;20043;-66
2023/12/12 11:47:29;;;;;;;3.38;2.40;;;23.20;41.10;;;;;;5069492;28;20111;-67
2023/12/12 11:52:56;;;;;;;4.80;1.95;;;23.00;41.70;;;;;;5063955;27;20482;-74
2023/12/12 11:55:28;;;;;;;5.22;2.50;;;22.90;42.00;;;;;;5071649;28;20527;-66
2023/12/12 11:57:58;;;;;;;5.88;3.00;;;22.90;42.00;;;;;;5069824;28;20032;-66
2023/12/12 12:00:24;;;;;;;3.25;2.05;;;23.00;42.00;;;;;;5074923;28;20040;-66
2023/12/12 12:02:50;;;;;;;6.13;2.55;;;23.00;41.80;;;;;;5097235;28;20055;-67
2023/12/12 12:05:15;;;;;;;4.80;3.08;;;23.20;41.60;;;;;;5072048;28;20032;-68
2023/12/12 12:07:41;;;;;;;3.38;1.60;;;23.30;41.40;;;;;;5100013;28;20040;-67
2023/12/12 12:10:08;;;;;;;6.65;3.55;;;23.40;41.30;;;;;;5097837;28;20550;-66
2023/12/12 12:12:34;;;;;;;8.70;3.42;;;23.50;41.20;;;;;;5067501;28;20055;-66
2023/12/12 12:30:05;;;;;;;5.50;3.75;;;23.90;39.40;;;;;;5085929;27;20548;-69
2023/12/12 12:32:32;;;;;;;4.53;3.28;;;24.00;39.50;;;;;;5096169;27;20056;-69
2023/12/12 12:37:50;;;;;;;6.38;4.32;;;23.90;39.70;;;;;;5075624;27;20529;-70
2023/12/12 12:43:18;;;;;;;5.35;4.28;;;23.80;39.40;;;;;;5055026;28;20853;-70
2023/12/12 12:45:45;;;;;;;7.22;3.97;;;23.80;39.30;;;;;;5068199;28;20063;-69
2023/12/12 12:48:11;;;;;;;8.57;4.57;;;23.70;39.20;;;;;;5054552;28;20391;-68
2023/12/12 12:50:42;;;;;;;8.15;4.18;;;23.70;39.20;;;;;;5068373;28;20037;-67
2023/12/12 12:53:11;;;;;;;6.70;4.75;;;23.70;39.10;;;;;;5053331;28;20064;-70
2023/12/12 12:55:40;;;;;;;6.15;4.47;;;23.70;39.20;;;;;;5051910;28;20045;-68
2023/12/12 12:58:11;;;;;;;5.65;4.10;;;23.80;39.10;;;;;;5052086;28;20119;-68
2023/12/12 13:00:37;;;;;;;6.30;5.15;;;23.80;39.10;;;;;;5050968;28;20045;-71
2023/12/12 13:03:04;;;;;;;10.70;5.32;;;23.80;39.10;;;;;;5050942;28;20079;-68
2023/12/12 13:05:32;;;;;;;8.30;4.63;;;23.90;40.00;;;;;;5067105;28;20045;-67
2023/12/12 13:07:58;;;;;;;7.88;4.60;;;23.80;39.30;;;;;;5043300;28;21258;-67
2023/12/12 13:10:24;;;;;;;8.23;4.70;;;23.90;39.50;;;;;;5066993;28;20047;-68